sensor_id;sensor_type;location;lat;lon;timestamp;pressure;altitude;pressure_sealevel;temperature;humidity
55687;BME280;41911;52.362;4.978;2022-10-18T00:00:16;102570.30;;;15.81;50.76
55687;BME280;41911;52.362;4.978;2022-10-18T00:00:47;102567.13;;;15.48;50.80
55687;BME280;41911;52.362;4.978;2022-10-18T00:01:18;102566.01;;;15.74;50.94
55687;BME280;41911;52.362;4.978;2022-10-18T00:01:49;102568.22;;;15.76;50.91
55687;BME280;41911;52.362;4.978;2022-10-18T00:02:20;102568.51;;;15.68;50.74
55687;BME280;41911;52.362;4.978;2022-10-18T00:02:52;102567.59;;;16.01;50.79
55687;BME280;41911;52.362;4.978;2022-10-18T00:03:23;102568.58;;;15.73;50.80
55687;BME280;41911;52.362;4.978;2022-10-18T00:03:54;102569.01;;;15.71;50.79
55687;BME280;41911;52.362;4.978;2022-10-18T00:04:25;102573.94;;;15.68;50.82
55687;BME280;41911;52.362;4.978;2022-10-18T00:04:56;102575.86;;;15.74;50.84
55687;BME280;41911;52.362;4.978;2022-10-18T00:05:29;102574.54;;;15.72;50.71
55687;BME280;41911;52.362;4.978;2022-10-18T00:06:01;102575.03;;;15.69;50.71
55687;BME280;41911;52.362;4.978;2022-10-18T00:06:32;102576.93;;;15.37;50.74
55687;BME280;41911;52.362;4.978;2022-10-18T00:07:03;102574.16;;;15.34;50.71
55687;BME280;41911;52.362;4.978;2022-10-18T00:07:34;102574.57;;;15.74;50.73
55687;BME280;41911;52.362;4.978;2022-10-18T00:08:05;102574.31;;;15.66;50.62
55687;BME280;41911;52.362;4.978;2022-10-18T00:08:37;102573.27;;;15.44;50.57
55687;BME280;41911;52.362;4.978;2022-10-18T00:09:08;102570.82;;;15.37;50.48
55687;BME280;41911;52.362;4.978;2022-10-18T00:09:39;102570.89;;;15.26;50.52
55687;BME280;41911;52.362;4.978;2022-10-18T00:10:12;102570.18;;;15.43;50.48
55687;BME280;41911;52.362;4.978;2022-10-18T00:10:43;102570.05;;;15.20;50.44
55687;BME280;41911;52.362;4.978;2022-10-18T00:11:14;102569.61;;;15.74;50.58
55687;BME280;41911;52.362;4.978;2022-10-18T00:11:45;102569.93;;;15.43;50.60
55687;BME280;41911;52.362;4.978;2022-10-18T00:12:16;102570.77;;;15.41;50.71
55687;BME280;41911;52.362;4.978;2022-10-18T00:12:47;102571.15;;;15.40;50.69
55687;BME280;41911;52.362;4.978;2022-10-18T00:13:18;102572.00;;;15.29;50.61
55687;BME280;41911;52.362;4.978;2022-10-18T00:13:49;102570.51;;;15.51;50.47
55687;BME280;41911;52.362;4.978;2022-10-18T00:14:20;102570.50;;;15.48;50.45
55687;BME280;41911;52.362;4.978;2022-10-18T00:14:52;102570.56;;;15.40;50.49
55687;BME280;41911;52.362;4.978;2022-10-18T00:15:23;102571.72;;;15.29;50.57
55687;BME280;41911;52.362;4.978;2022-10-18T00:15:56;102572.61;;;14.97;50.53
55687;BME280;41911;52.362;4.978;2022-10-18T00:16:28;102572.92;;;15.28;50.47
55687;BME280;41911;52.362;4.978;2022-10-18T00:16:59;102570.59;;;15.01;50.39
55687;BME280;41911;52.362;4.978;2022-10-18T00:17:30;102571.00;;;15.39;50.51
55687;BME280;41911;52.362;4.978;2022-10-18T00:18:01;102570.76;;;15.21;50.52
55687;BME280;41911;52.362;4.978;2022-10-18T00:18:33;102571.29;;;15.11;50.44
55687;BME280;41911;52.362;4.978;2022-10-18T00:19:04;102571.58;;;15.44;50.61
55687;BME280;41911;52.362;4.978;2022-10-18T00:19:35;102572.43;;;14.84;50.68
55687;BME280;41911;52.362;4.978;2022-10-18T00:20:07;102571.16;;;15.37;50.64
55687;BME280;41911;52.362;4.978;2022-10-18T00:20:38;102568.30;;;15.26;50.60
55687;BME280;41911;52.362;4.978;2022-10-18T00:21:15;102568.75;;;15.24;50.57
55687;BME280;41911;52.362;4.978;2022-10-18T00:21:49;102567.60;;;15.28;50.54
55687;BME280;41911;52.362;4.978;2022-10-18T00:22:20;102565.55;;;15.17;50.61
55687;BME280;41911;52.362;4.978;2022-10-18T00:22:51;102565.67;;;14.95;50.70
55687;BME280;41911;52.362;4.978;2022-10-18T00:23:22;102564.33;;;15.21;50.65
55687;BME280;41911;52.362;4.978;2022-10-18T00:23:53;102563.56;;;14.93;50.80
55687;BME280;41911;52.362;4.978;2022-10-18T00:24:24;102562.36;;;14.63;50.66
55687;BME280;41911;52.362;4.978;2022-10-18T00:24:55;102563.84;;;14.86;50.71
55687;BME280;41911;52.362;4.978;2022-10-18T00:25:26;102564.85;;;15.05;50.86
55687;BME280;41911;52.362;4.978;2022-10-18T00:26:04;102562.27;;;15.09;50.83
55687;BME280;41911;52.362;4.978;2022-10-18T00:26:36;102561.80;;;15.05;50.89
55687;BME280;41911;52.362;4.978;2022-10-18T00:27:07;102560.40;;;15.03;50.90
55687;BME280;41911;52.362;4.978;2022-10-18T00:27:38;102562.60;;;15.01;50.82
55687;BME280;41911;52.362;4.978;2022-10-18T00:28:09;102560.74;;;14.76;50.80
55687;BME280;41911;52.362;4.978;2022-10-18T00:28:41;102562.06;;;15.02;50.77
55687;BME280;41911;52.362;4.978;2022-10-18T00:29:15;102561.48;;;14.96;50.81
55687;BME280;41911;52.362;4.978;2022-10-18T00:29:46;102562.12;;;14.63;50.75
55687;BME280;41911;52.362;4.978;2022-10-18T00:30:17;102563.66;;;14.88;50.73
55687;BME280;41911;52.362;4.978;2022-10-18T00:30:48;102565.04;;;14.79;50.77
55687;BME280;41911;52.362;4.978;2022-10-18T00:31:24;102566.14;;;14.57;50.83
55687;BME280;41911;52.362;4.978;2022-10-18T00:31:56;102566.17;;;14.89;50.91
55687;BME280;41911;52.362;4.978;2022-10-18T00:32:27;102565.60;;;14.88;50.89
55687;BME280;41911;52.362;4.978;2022-10-18T00:32:58;102566.98;;;14.86;50.97
55687;BME280;41911;52.362;4.978;2022-10-18T00:33:29;102566.48;;;14.84;50.99
55687;BME280;41911;52.362;4.978;2022-10-18T00:34:02;102567.25;;;14.80;50.94
55687;BME280;41911;52.362;4.978;2022-10-18T00:34:33;102568.36;;;14.69;50.90
55687;BME280;41911;52.362;4.978;2022-10-18T00:35:06;102566.56;;;14.75;50.90
55687;BME280;41911;52.362;4.978;2022-10-18T00:35:37;102567.07;;;14.67;50.94
55687;BME280;41911;52.362;4.978;2022-10-18T00:36:08;102567.26;;;14.74;51.04
55687;BME280;41911;52.362;4.978;2022-10-18T00:36:40;102567.05;;;14.71;51.12
55687;BME280;41911;52.362;4.978;2022-10-18T00:37:11;102569.06;;;14.68;51.08
55687;BME280;41911;52.362;4.978;2022-10-18T00:37:42;102569.68;;;14.67;50.96
55687;BME280;41911;52.362;4.978;2022-10-18T00:38:13;102568.42;;;14.65;50.88
55687;BME280;41911;52.362;4.978;2022-10-18T00:38:45;102570.11;;;14.64;50.95
55687;BME280;41911;52.362;4.978;2022-10-18T00:39:21;102569.68;;;14.55;51.00
55687;BME280;41911;52.362;4.978;2022-10-18T00:39:52;102568.84;;;14.61;51.07
55687;BME280;41911;52.362;4.978;2022-10-18T00:40:23;102570.43;;;14.60;51.04
55687;BME280;41911;52.362;4.978;2022-10-18T00:40:54;102571.72;;;14.87;51.17
55687;BME280;41911;52.362;4.978;2022-10-18T00:41:27;102574.22;;;14.56;51.13
55687;BME280;41911;52.362;4.978;2022-10-18T00:41:58;102573.77;;;14.53;51.03
55687;BME280;41911;52.362;4.978;2022-10-18T00:42:30;102574.42;;;14.83;51.10
55687;BME280;41911;52.362;4.978;2022-10-18T00:43:02;102575.94;;;14.79;51.00
55687;BME280;41911;52.362;4.978;2022-10-18T00:43:51;102576.09;;;14.49;51.02
55687;BME280;41911;52.362;4.978;2022-10-18T00:45:27;102573.84;;;14.45;51.01
55687;BME280;41911;52.362;4.978;2022-10-18T00:45:58;102576.03;;;14.43;50.96
55687;BME280;41911;52.362;4.978;2022-10-18T00:46:31;102573.72;;;14.33;51.02
55687;BME280;41911;52.362;4.978;2022-10-18T00:47:07;102576.89;;;14.33;50.98
55687;BME280;41911;52.362;4.978;2022-10-18T00:47:40;102574.39;;;14.40;50.96
55687;BME280;41911;52.362;4.978;2022-10-18T00:48:15;102574.35;;;14.62;50.97
55687;BME280;41911;52.362;4.978;2022-10-18T00:48:48;102576.59;;;14.69;51.18
55687;BME280;41911;52.362;4.978;2022-10-18T00:49:22;102576.71;;;14.31;51.18
55687;BME280;41911;52.362;4.978;2022-10-18T00:49:56;102577.05;;;14.58;51.24
55687;BME280;41911;52.362;4.978;2022-10-18T00:50:33;102574.06;;;14.56;51.17
55687;BME280;41911;52.362;4.978;2022-10-18T00:51:05;102576.97;;;14.33;51.21
55687;BME280;41911;52.362;4.978;2022-10-18T00:51:40;102578.14;;;14.23;51.28
55687;BME280;41911;52.362;4.978;2022-10-18T00:52:16;102575.76;;;14.93;51.18
55687;BME280;41911;52.362;4.978;2022-10-18T00:52:53;102578.49;;;14.27;51.15
55687;BME280;41911;52.362;4.978;2022-10-18T00:53:25;102577.95;;;14.54;51.13
55687;BME280;41911;52.362;4.978;2022-10-18T00:53:56;102579.89;;;14.53;51.10
55687;BME280;41911;52.362;4.978;2022-10-18T00:54:30;102579.70;;;14.16;51.06
55687;BME280;41911;52.362;4.978;2022-10-18T00:55:05;102581.38;;;14.52;51.08
55687;BME280;41911;52.362;4.978;2022-10-18T00:55:38;102583.38;;;14.52;51.18
55687;BME280;41911;52.362;4.978;2022-10-18T00:56:09;102581.75;;;14.14;51.15
55687;BME280;41911;52.362;4.978;2022-10-18T00:56:41;102580.91;;;14.12;51.13
55687;BME280;41911;52.362;4.978;2022-10-18T00:57:12;102581.39;;;14.10;51.20
55687;BME280;41911;52.362;4.978;2022-10-18T00:57:44;102580.26;;;14.46;51.27
55687;BME280;41911;52.362;4.978;2022-10-18T00:58:16;102581.85;;;14.19;51.35
55687;BME280;41911;52.362;4.978;2022-10-18T00:58:48;102580.94;;;14.46;51.34
55687;BME280;41911;52.362;4.978;2022-10-18T00:59:21;102581.40;;;14.35;51.27
55687;BME280;41911;52.362;4.978;2022-10-18T00:59:52;102581.29;;;14.49;51.35
55687;BME280;41911;52.362;4.978;2022-10-18T01:00:23;102583.70;;;14.13;51.30
55687;BME280;41911;52.362;4.978;2022-10-18T01:00:54;102583.15;;;14.41;51.28
55687;BME280;41911;52.362;4.978;2022-10-18T01:01:25;102582.57;;;14.39;51.25
55687;BME280;41911;52.362;4.978;2022-10-18T01:01:56;102582.70;;;14.35;51.02
55687;BME280;41911;52.362;4.978;2022-10-18T01:02:28;102583.15;;;14.42;51.09
55687;BME280;41911;52.362;4.978;2022-10-18T01:03:01;102581.01;;;14.31;51.18
55687;BME280;41911;52.362;4.978;2022-10-18T01:03:32;102583.49;;;14.23;51.14
55687;BME280;41911;52.362;4.978;2022-10-18T01:04:04;102578.91;;;14.36;51.07
55687;BME280;41911;52.362;4.978;2022-10-18T01:04:35;102580.53;;;14.09;51.16
55687;BME280;41911;52.362;4.978;2022-10-18T01:05:09;102577.73;;;14.30;51.14
55687;BME280;41911;52.362;4.978;2022-10-18T01:05:45;102578.85;;;14.60;51.17
55687;BME280;41911;52.362;4.978;2022-10-18T01:06:17;102577.81;;;14.07;51.19
55687;BME280;41911;52.362;4.978;2022-10-18T01:07:05;102576.39;;;14.26;51.24
55687;BME280;41911;52.362;4.978;2022-10-18T01:07:56;102578.16;;;14.59;51.14
55687;BME280;41911;52.362;4.978;2022-10-18T01:09:12;102582.32;;;14.28;51.17
55687;BME280;41911;52.362;4.978;2022-10-18T01:09:56;102586.18;;;14.22;51.28
55687;BME280;41911;52.362;4.978;2022-10-18T01:10:38;102586.86;;;13.87;51.17
55687;BME280;41911;52.362;4.978;2022-10-18T01:11:31;102590.87;;;14.26;51.23
55687;BME280;41911;52.362;4.978;2022-10-18T01:12:18;102591.36;;;14.22;51.34
55687;BME280;41911;52.362;4.978;2022-10-18T01:13:05;102593.19;;;14.21;51.42
55687;BME280;41911;52.362;4.978;2022-10-18T01:13:55;102593.90;;;14.47;51.50
55687;BME280;41911;52.362;4.978;2022-10-18T01:14:40;102594.94;;;14.15;51.46
55687;BME280;41911;52.362;4.978;2022-10-18T01:15:20;102595.85;;;14.16;51.50
55687;BME280;41911;52.362;4.978;2022-10-18T01:16:00;102597.25;;;14.16;51.75
55687;BME280;41911;52.362;4.978;2022-10-18T01:16:36;102596.65;;;14.27;51.69
55687;BME280;41911;52.362;4.978;2022-10-18T01:17:15;102593.61;;;14.53;51.72
55687;BME280;41911;52.362;4.978;2022-10-18T01:17:54;102589.71;;;14.56;51.61
55687;BME280;41911;52.362;4.978;2022-10-18T01:18:34;102590.68;;;14.51;51.19
55687;BME280;41911;52.362;4.978;2022-10-18T01:19:24;102588.82;;;14.25;51.14
55687;BME280;41911;52.362;4.978;2022-10-18T01:20:13;102587.22;;;14.69;51.34
55687;BME280;41911;52.362;4.978;2022-10-18T01:21:12;102587.37;;;14.74;51.35
55687;BME280;41911;52.362;4.978;2022-10-18T01:21:52;102587.40;;;14.58;51.38
55687;BME280;41911;52.362;4.978;2022-10-18T01:22:33;102587.12;;;14.45;51.45
55687;BME280;41911;52.362;4.978;2022-10-18T01:23:11;102585.93;;;14.23;51.45
55687;BME280;41911;52.362;4.978;2022-10-18T01:24:11;102585.82;;;14.45;51.48
55687;BME280;41911;52.362;4.978;2022-10-18T01:24:54;102586.62;;;14.33;51.44
55687;BME280;41911;52.362;4.978;2022-10-18T01:25:38;102587.58;;;14.31;51.56
55687;BME280;41911;52.362;4.978;2022-10-18T01:26:23;102587.32;;;14.20;51.45
55687;BME280;41911;52.362;4.978;2022-10-18T01:27:10;102586.54;;;14.30;51.37
55687;BME280;41911;52.362;4.978;2022-10-18T01:27:54;102586.12;;;14.45;51.45
55687;BME280;41911;52.362;4.978;2022-10-18T01:28:41;102586.11;;;14.23;51.36
55687;BME280;41911;52.362;4.978;2022-10-18T01:29:23;102585.68;;;14.00;51.35
55687;BME280;41911;52.362;4.978;2022-10-18T01:30:17;102589.20;;;14.19;51.27
55687;BME280;41911;52.362;4.978;2022-10-18T01:30:52;102586.42;;;14.46;51.25
55687;BME280;41911;52.362;4.978;2022-10-18T01:31:32;102590.22;;;14.14;51.22
55687;BME280;41911;52.362;4.978;2022-10-18T01:32:08;102592.47;;;14.46;51.31
55687;BME280;41911;52.362;4.978;2022-10-18T01:32:46;102587.96;;;14.01;51.36
55687;BME280;41911;52.362;4.978;2022-10-18T01:33:26;102589.89;;;14.40;51.23
55687;BME280;41911;52.362;4.978;2022-10-18T01:34:02;102591.61;;;13.66;51.19
55687;BME280;41911;52.362;4.978;2022-10-18T01:34:36;102590.70;;;13.92;51.27
55687;BME280;41911;52.362;4.978;2022-10-18T01:35:13;102591.88;;;14.32;51.47
55687;BME280;41911;52.362;4.978;2022-10-18T01:35:49;102592.96;;;14.28;51.24
55687;BME280;41911;52.362;4.978;2022-10-18T01:36:27;102590.75;;;14.35;51.24
55687;BME280;41911;52.362;4.978;2022-10-18T01:37:07;102592.56;;;14.07;51.23
55687;BME280;41911;52.362;4.978;2022-10-18T01:37:41;102592.97;;;14.33;51.23
55687;BME280;41911;52.362;4.978;2022-10-18T01:38:15;102592.37;;;14.13;51.45
55687;BME280;41911;52.362;4.978;2022-10-18T01:38:50;102590.67;;;14.03;51.61
55687;BME280;41911;52.362;4.978;2022-10-18T01:39:28;102588.86;;;14.06;51.50
55687;BME280;41911;52.362;4.978;2022-10-18T01:40:04;102588.95;;;14.15;51.38
55687;BME280;41911;52.362;4.978;2022-10-18T01:40:37;102588.31;;;14.16;51.33
55687;BME280;41911;52.362;4.978;2022-10-18T01:41:13;102588.06;;;14.09;51.44
55687;BME280;41911;52.362;4.978;2022-10-18T01:41:46;102589.76;;;14.09;51.44
55687;BME280;41911;52.362;4.978;2022-10-18T01:42:19;102587.26;;;13.81;51.33
55687;BME280;41911;52.362;4.978;2022-10-18T01:42:50;102586.66;;;14.18;51.19
55687;BME280;41911;52.362;4.978;2022-10-18T01:43:22;102585.84;;;14.11;51.28
55687;BME280;41911;52.362;4.978;2022-10-18T01:43:58;102588.58;;;14.10;51.36
55687;BME280;41911;52.362;4.978;2022-10-18T01:44:31;102589.82;;;14.12;51.32
55687;BME280;41911;52.362;4.978;2022-10-18T01:45:04;102588.86;;;13.83;51.39
55687;BME280;41911;52.362;4.978;2022-10-18T01:45:36;102590.98;;;14.12;51.34
55687;BME280;41911;52.362;4.978;2022-10-18T01:46:08;102589.39;;;14.12;51.32
55687;BME280;41911;52.362;4.978;2022-10-18T01:46:40;102589.70;;;14.19;51.28
55687;BME280;41911;52.362;4.978;2022-10-18T01:47:13;102591.59;;;14.17;51.34
55687;BME280;41911;52.362;4.978;2022-10-18T01:47:46;102591.71;;;14.10;51.40
55687;BME280;41911;52.362;4.978;2022-10-18T01:48:18;102592.04;;;14.10;51.44
55687;BME280;41911;52.362;4.978;2022-10-18T01:48:50;102592.59;;;13.84;51.42
55687;BME280;41911;52.362;4.978;2022-10-18T01:49:23;102594.07;;;14.11;51.37
55687;BME280;41911;52.362;4.978;2022-10-18T01:49:57;102594.81;;;14.02;51.42
55687;BME280;41911;52.362;4.978;2022-10-18T01:50:30;102596.48;;;14.16;51.56
55687;BME280;41911;52.362;4.978;2022-10-18T01:51:01;102597.97;;;13.85;51.43
55687;BME280;41911;52.362;4.978;2022-10-18T01:51:33;102597.56;;;14.14;51.40
55687;BME280;41911;52.362;4.978;2022-10-18T01:52:04;102599.60;;;13.79;51.43
55687;BME280;41911;52.362;4.978;2022-10-18T01:52:47;102602.19;;;14.16;51.60
55687;BME280;41911;52.362;4.978;2022-10-18T01:53:28;102602.76;;;13.85;51.45
55687;BME280;41911;52.362;4.978;2022-10-18T01:54:00;102603.73;;;14.15;51.42
55687;BME280;41911;52.362;4.978;2022-10-18T01:54:36;102603.03;;;14.08;51.36
55687;BME280;41911;52.362;4.978;2022-10-18T01:55:08;102604.31;;;14.07;51.39
55687;BME280;41911;52.362;4.978;2022-10-18T01:55:43;102604.11;;;14.16;51.38
55687;BME280;41911;52.362;4.978;2022-10-18T01:56:22;102606.15;;;14.09;51.52
55687;BME280;41911;52.362;4.978;2022-10-18T01:56:57;102605.50;;;13.77;51.47
55687;BME280;41911;52.362;4.978;2022-10-18T01:57:38;102606.87;;;13.48;51.38
55687;BME280;41911;52.362;4.978;2022-10-18T01:58:17;102606.48;;;13.75;51.37
55687;BME280;41911;52.362;4.978;2022-10-18T01:59:02;102606.66;;;14.12;51.33
55687;BME280;41911;52.362;4.978;2022-10-18T01:59:42;102605.56;;;13.85;51.32
55687;BME280;41911;52.362;4.978;2022-10-18T02:00:21;102604.94;;;14.15;51.35
55687;BME280;41911;52.362;4.978;2022-10-18T02:01:02;102607.87;;;13.86;51.25
55687;BME280;41911;52.362;4.978;2022-10-18T02:01:44;102605.94;;;14.04;51.18
55687;BME280;41911;52.362;4.978;2022-10-18T02:02:33;102608.34;;;13.84;51.17
55687;BME280;41911;52.362;4.978;2022-10-18T02:03:14;102605.01;;;13.76;51.18
55687;BME280;41911;52.362;4.978;2022-10-18T02:03:48;102607.20;;;14.08;51.26
55687;BME280;41911;52.362;4.978;2022-10-18T02:04:32;102604.34;;;14.04;51.24
55687;BME280;41911;52.362;4.978;2022-10-18T02:05:16;102605.05;;;13.99;51.19
55687;BME280;41911;52.362;4.978;2022-10-18T02:05:53;102600.31;;;14.13;51.25
55687;BME280;41911;52.362;4.978;2022-10-18T02:06:30;102599.56;;;14.14;51.16
55687;BME280;41911;52.362;4.978;2022-10-18T02:07:08;102600.69;;;14.05;51.22
55687;BME280;41911;52.362;4.978;2022-10-18T02:07:48;102598.60;;;14.08;51.39
55687;BME280;41911;52.362;4.978;2022-10-18T02:08:26;102599.48;;;14.07;51.37
55687;BME280;41911;52.362;4.978;2022-10-18T02:09:03;102601.42;;;14.05;51.43
55687;BME280;41911;52.362;4.978;2022-10-18T02:09:45;102601.26;;;13.97;51.43
55687;BME280;41911;52.362;4.978;2022-10-18T02:10:24;102601.32;;;13.70;51.32
55687;BME280;41911;52.362;4.978;2022-10-18T02:11:02;102600.21;;;13.96;51.17
55687;BME280;41911;52.362;4.978;2022-10-18T02:11:35;102599.77;;;13.88;51.32
55687;BME280;41911;52.362;4.978;2022-10-18T02:12:09;102599.81;;;13.56;51.14
55687;BME280;41911;52.362;4.978;2022-10-18T02:12:43;102597.80;;;13.88;51.17
55687;BME280;41911;52.362;4.978;2022-10-18T02:13:19;102596.58;;;13.50;51.10
55687;BME280;41911;52.362;4.978;2022-10-18T02:13:52;102595.54;;;13.58;51.04
55687;BME280;41911;52.362;4.978;2022-10-18T02:14:25;102595.64;;;13.82;51.13
55687;BME280;41911;52.362;4.978;2022-10-18T02:14:58;102594.64;;;13.95;51.05
55687;BME280;41911;52.362;4.978;2022-10-18T02:15:32;102596.01;;;13.88;51.11
55687;BME280;41911;52.362;4.978;2022-10-18T02:16:09;102594.01;;;13.76;51.07
55687;BME280;41911;52.362;4.978;2022-10-18T02:16:46;102593.48;;;13.89;51.25
55687;BME280;41911;52.362;4.978;2022-10-18T02:17:20;102595.05;;;13.81;51.26
55687;BME280;41911;52.362;4.978;2022-10-18T02:17:55;102597.18;;;13.49;51.31
55687;BME280;41911;52.362;4.978;2022-10-18T02:18:29;102597.51;;;13.69;51.15
55687;BME280;41911;52.362;4.978;2022-10-18T02:19:10;102599.78;;;13.78;51.09
55687;BME280;41911;52.362;4.978;2022-10-18T02:19:44;102601.68;;;13.69;51.27
55687;BME280;41911;52.362;4.978;2022-10-18T02:20:21;102604.68;;;13.46;51.22
55687;BME280;41911;52.362;4.978;2022-10-18T02:20:55;102607.01;;;13.73;51.15
55687;BME280;41911;52.362;4.978;2022-10-18T02:21:28;102606.55;;;13.67;51.29
55687;BME280;41911;52.362;4.978;2022-10-18T02:22:00;102606.56;;;13.74;51.41
55687;BME280;41911;52.362;4.978;2022-10-18T02:22:32;102609.32;;;13.73;51.29
55687;BME280;41911;52.362;4.978;2022-10-18T02:23:06;102608.62;;;13.73;51.40
55687;BME280;41911;52.362;4.978;2022-10-18T02:23:38;102611.62;;;13.42;51.51
55687;BME280;41911;52.362;4.978;2022-10-18T02:24:10;102610.85;;;13.72;51.41
55687;BME280;41911;52.362;4.978;2022-10-18T02:24:46;102611.26;;;13.69;51.46
55687;BME280;41911;52.362;4.978;2022-10-18T02:25:21;102609.34;;;13.68;51.54
55687;BME280;41911;52.362;4.978;2022-10-18T02:25:53;102612.01;;;13.65;51.44
55687;BME280;41911;52.362;4.978;2022-10-18T02:26:25;102611.52;;;13.65;51.59
55687;BME280;41911;52.362;4.978;2022-10-18T02:26:56;102612.80;;;13.66;51.60
55687;BME280;41911;52.362;4.978;2022-10-18T02:27:27;102611.78;;;13.65;51.60
55687;BME280;41911;52.362;4.978;2022-10-18T02:27:58;102610.61;;;13.60;51.47
55687;BME280;41911;52.362;4.978;2022-10-18T02:28:30;102610.32;;;13.69;51.54
55687;BME280;41911;52.362;4.978;2022-10-18T02:29:03;102607.97;;;13.38;51.51
55687;BME280;41911;52.362;4.978;2022-10-18T02:29:35;102609.67;;;13.68;51.49
55687;BME280;41911;52.362;4.978;2022-10-18T02:30:07;102606.85;;;13.69;51.58
55687;BME280;41911;52.362;4.978;2022-10-18T02:30:46;102607.88;;;13.68;51.57
55687;BME280;41911;52.362;4.978;2022-10-18T02:31:25;102608.53;;;13.69;51.49
55687;BME280;41911;52.362;4.978;2022-10-18T02:32:05;102608.08;;;13.52;51.49
55687;BME280;41911;52.362;4.978;2022-10-18T02:32:41;102608.03;;;13.60;51.49
55687;BME280;41911;52.362;4.978;2022-10-18T02:33:16;102606.45;;;13.55;51.54
55687;BME280;41911;52.362;4.978;2022-10-18T02:33:56;102604.26;;;13.81;51.60
55687;BME280;41911;52.362;4.978;2022-10-18T02:34:30;102607.06;;;13.81;51.69
55687;BME280;41911;52.362;4.978;2022-10-18T02:35:07;102607.04;;;13.78;51.65
55687;BME280;41911;52.362;4.978;2022-10-18T02:35:44;102608.34;;;13.78;51.67
55687;BME280;41911;52.362;4.978;2022-10-18T02:36:19;102607.35;;;13.78;51.66
55687;BME280;41911;52.362;4.978;2022-10-18T02:36:56;102605.46;;;13.79;51.65
55687;BME280;41911;52.362;4.978;2022-10-18T02:37:31;102605.94;;;13.78;51.62
55687;BME280;41911;52.362;4.978;2022-10-18T02:38:06;102605.33;;;13.76;51.56
55687;BME280;41911;52.362;4.978;2022-10-18T02:38:40;102606.23;;;13.74;51.54
55687;BME280;41911;52.362;4.978;2022-10-18T02:39:13;102604.38;;;13.71;51.45
55687;BME280;41911;52.362;4.978;2022-10-18T02:39:48;102606.04;;;13.72;51.39
55687;BME280;41911;52.362;4.978;2022-10-18T02:40:20;102605.73;;;13.73;51.41
55687;BME280;41911;52.362;4.978;2022-10-18T02:40:51;102605.68;;;13.45;51.51
55687;BME280;41911;52.362;4.978;2022-10-18T02:41:24;102605.85;;;13.73;51.61
55687;BME280;41911;52.362;4.978;2022-10-18T02:41:56;102607.06;;;13.71;51.49
55687;BME280;41911;52.362;4.978;2022-10-18T02:42:35;102605.22;;;13.70;51.47
55687;BME280;41911;52.362;4.978;2022-10-18T02:43:06;102605.56;;;13.69;51.37
55687;BME280;41911;52.362;4.978;2022-10-18T02:43:37;102605.99;;;13.69;51.43
55687;BME280;41911;52.362;4.978;2022-10-18T02:44:08;102605.21;;;13.68;51.54
55687;BME280;41911;52.362;4.978;2022-10-18T02:44:39;102603.95;;;13.59;51.38
55687;BME280;41911;52.362;4.978;2022-10-18T02:45:12;102603.19;;;13.62;51.36
55687;BME280;41911;52.362;4.978;2022-10-18T02:45:44;102603.03;;;13.66;51.24
55687;BME280;41911;52.362;4.978;2022-10-18T02:46:16;102605.82;;;13.66;51.37
55687;BME280;41911;52.362;4.978;2022-10-18T02:46:47;102606.12;;;13.63;51.34
55687;BME280;41911;52.362;4.978;2022-10-18T02:47:18;102605.52;;;13.68;51.38
55687;BME280;41911;52.362;4.978;2022-10-18T02:47:52;102605.97;;;13.66;51.42
55687;BME280;41911;52.362;4.978;2022-10-18T02:48:23;102608.58;;;13.64;51.38
55687;BME280;41911;52.362;4.978;2022-10-18T02:48:54;102608.70;;;13.64;51.39
55687;BME280;41911;52.362;4.978;2022-10-18T02:49:25;102608.97;;;13.62;51.39
55687;BME280;41911;52.362;4.978;2022-10-18T02:49:56;102609.72;;;13.61;51.41
55687;BME280;41911;52.362;4.978;2022-10-18T02:50:27;102609.36;;;13.63;51.27
55687;BME280;41911;52.362;4.978;2022-10-18T02:50:58;102610.07;;;13.60;51.36
55687;BME280;41911;52.362;4.978;2022-10-18T02:51:29;102608.65;;;13.57;51.50
55687;BME280;41911;52.362;4.978;2022-10-18T02:52:00;102610.86;;;13.56;51.43
55687;BME280;41911;52.362;4.978;2022-10-18T02:52:31;102606.93;;;13.55;51.51
55687;BME280;41911;52.362;4.978;2022-10-18T02:53:04;102606.50;;;13.54;51.53
55687;BME280;41911;52.362;4.978;2022-10-18T02:53:35;102607.66;;;13.56;51.52
55687;BME280;41911;52.362;4.978;2022-10-18T02:54:06;102606.91;;;13.59;51.59
55687;BME280;41911;52.362;4.978;2022-10-18T02:54:37;102607.46;;;13.58;51.60
55687;BME280;41911;52.362;4.978;2022-10-18T02:55:09;102608.75;;;13.89;51.69
55687;BME280;41911;52.362;4.978;2022-10-18T02:55:40;102608.72;;;13.61;51.66
55687;BME280;41911;52.362;4.978;2022-10-18T02:56:11;102609.01;;;13.60;51.67
55687;BME280;41911;52.362;4.978;2022-10-18T02:56:42;102610.88;;;13.57;51.68
55687;BME280;41911;52.362;4.978;2022-10-18T02:57:13;102613.80;;;13.84;51.76
55687;BME280;41911;52.362;4.978;2022-10-18T02:57:44;102613.22;;;13.61;51.52
55687;BME280;41911;52.362;4.978;2022-10-18T02:58:16;102615.32;;;13.49;51.42
55687;BME280;41911;52.362;4.978;2022-10-18T02:58:47;102615.38;;;13.52;51.37
55687;BME280;41911;52.362;4.978;2022-10-18T02:59:20;102615.49;;;13.51;51.35
55687;BME280;41911;52.362;4.978;2022-10-18T02:59:51;102615.17;;;13.47;51.32
55687;BME280;41911;52.362;4.978;2022-10-18T03:00:22;102615.23;;;13.52;51.34
55687;BME280;41911;52.362;4.978;2022-10-18T03:00:53;102615.20;;;13.42;51.37
55687;BME280;41911;52.362;4.978;2022-10-18T03:01:24;102615.61;;;13.41;51.42
55687;BME280;41911;52.362;4.978;2022-10-18T03:01:55;102615.98;;;13.37;51.33
55687;BME280;41911;52.362;4.978;2022-10-18T03:02:26;102616.02;;;13.34;51.21
55687;BME280;41911;52.362;4.978;2022-10-18T03:02:57;102616.84;;;13.32;51.25